sensor_id;sensor_type;location;lat;lon;timestamp;pressure;altitude;pressure_sealevel;temperature;humidity
37694;BME280;23531;50.122;8.644;2022-09-09T02:02:01;100015.88;;;18.13;nan
37694;BME280;23531;50.122;8.644;2022-09-09T02:04:13;100019.97;;;18.16;nan
37694;BME280;23531;50.122;8.644;2022-09-09T02:06:26;100017.25;;;18.16;nan
37694;BME280;23531;50.122;8.644;2022-09-09T02:08:33;100017.53;;;18.14;nan
37694;BME280;23531;50.122;8.644;2022-09-09T02:10:44;100015.06;;;18.13;nan
37694;BME280;23531;50.122;8.644;2022-09-09T02:12:48;100020.50;;;18.13;nan
37694;BME280;23531;50.122;8.644;2022-09-09T02:14:55;100015.34;;;18.17;nan
37694;BME280;23531;50.122;8.644;2022-09-09T02:17:02;100010.19;;;18.30;nan
37694;BME280;23531;50.122;8.644;2022-09-09T02:19:08;100014.56;;;18.36;nan
37694;BME280;23531;50.122;8.644;2022-09-09T02:21:14;100010.16;;;18.20;nan
37694;BME280;23531;50.122;8.644;2022-09-09T02:23:17;100019.69;;;18.23;nan
37694;BME280;23531;50.122;8.644;2022-09-09T02:25:22;100030.88;;;18.26;nan
37694;BME280;23531;50.122;8.644;2022-09-09T02:27:24;100037.94;;;18.32;nan
37694;BME280;23531;50.122;8.644;2022-09-09T02:29:28;100038.50;;;18.34;nan
37694;BME280;23531;50.122;8.644;2022-09-09T02:31:33;100040.41;;;18.34;nan
37694;BME280;23531;50.122;8.644;2022-09-09T02:33:41;100047.47;;;18.30;nan
37694;BME280;23531;50.122;8.644;2022-09-09T02:35:44;100049.63;;;18.23;nan
37694;BME280;23531;50.122;8.644;2022-09-09T02:37:48;100041.19;;;18.29;nan
37694;BME280;23531;50.122;8.644;2022-09-09T02:39:51;100034.41;;;18.22;nan
37694;BME280;23531;50.122;8.644;2022-09-09T02:41:53;100031.69;;;18.27;nan
37694;BME280;23531;50.122;8.644;2022-09-09T02:43:54;100036.31;;;18.26;nan
37694;BME280;23531;50.122;8.644;2022-09-09T02:46:03;100043.41;;;18.27;nan
37694;BME280;23531;50.122;8.644;2022-09-09T02:48:14;100043.66;;;18.31;nan
37694;BME280;23531;50.122;8.644;2022-09-09T02:50:23;100035.22;;;18.32;nan
37694;BME280;23531;50.122;8.644;2022-09-09T02:52:28;100035.78;;;18.34;nan
37694;BME280;23531;50.122;8.644;2022-09-09T02:54:34;100024.88;;;18.29;nan
37694;BME280;23531;50.122;8.644;2022-09-09T02:56:40;100024.34;;;18.27;nan
37694;BME280;23531;50.122;8.644;2022-09-09T02:58:43;100029.50;;;18.13;nan
37694;BME280;23531;50.122;8.644;2022-09-09T03:00:46;100031.94;;;18.15;nan
37694;BME280;23531;50.122;8.644;2022-09-09T03:02:48;100035.22;;;18.22;nan
37694;BME280;23531;50.122;8.644;2022-09-09T03:04:49;100034.16;;;18.28;nan
37694;BME280;23531;50.122;8.644;2022-09-09T03:06:53;100034.41;;;18.32;nan
37694;BME280;23531;50.122;8.644;2022-09-09T03:08:55;100036.31;;;18.26;nan
37694;BME280;23531;50.122;8.644;2022-09-09T03:11:00;100033.03;;;18.29;nan
37694;BME280;23531;50.122;8.644;2022-09-09T03:13:02;100032.78;;;18.36;nan
37694;BME280;23531;50.122;8.644;2022-09-09T03:15:05;100034.66;;;18.30;nan
37694;BME280;23531;50.122;8.644;2022-09-09T03:17:07;100019.41;;;18.19;nan
37694;BME280;23531;50.122;8.644;2022-09-09T03:19:09;100019.13;;;18.00;nan
37694;BME280;23531;50.122;8.644;2022-09-09T03:21:10;100013.13;;;17.98;nan
37694;BME280;23531;50.122;8.644;2022-09-09T03:23:13;100008.22;;;17.95;nan
37694;BME280;23531;50.122;8.644;2022-09-09T03:25:15;100015.03;;;17.93;nan
37694;BME280;23531;50.122;8.644;2022-09-09T03:27:16;100005.22;;;17.92;nan
37694;BME280;23531;50.122;8.644;2022-09-09T03:29:19;100011.78;;;18.06;nan
37694;BME280;23531;50.122;8.644;2022-09-09T03:31:21;100017.50;;;18.04;nan
37694;BME280;23531;50.122;8.644;2022-09-09T03:33:23;100009.59;;;17.98;nan
37694;BME280;23531;50.122;8.644;2022-09-09T03:35:25;100017.22;;;18.06;nan
37694;BME280;23531;50.122;8.644;2022-09-09T03:37:26;100022.69;;;18.16;nan
37694;BME280;23531;50.122;8.644;2022-09-09T03:39:29;100028.41;;;18.25;nan
37694;BME280;23531;50.122;8.644;2022-09-09T03:41:31;100022.97;;;18.25;nan
37694;BME280;23531;50.122;8.644;2022-09-09T03:43:32;100024.34;;;18.17;nan
37694;BME280;23531;50.122;8.644;2022-09-09T03:45:33;100019.94;;;18.06;nan
37694;BME280;23531;50.122;8.644;2022-09-09T03:47:35;100031.91;;;18.00;nan
37694;BME280;23531;50.122;8.644;2022-09-09T03:49:36;100032.97;;;17.89;nan
37694;BME280;23531;50.122;8.644;2022-09-09T03:51:37;100027.81;;;17.97;nan
37694;BME280;23531;50.122;8.644;2022-09-09T03:53:40;100018.59;;;18.03;nan
37694;BME280;23531;50.122;8.644;2022-09-09T03:55:44;100014.75;;;17.99;nan
37694;BME280;23531;50.122;8.644;2022-09-09T03:57:46;100014.19;;;17.87;nan
37694;BME280;23531;50.122;8.644;2022-09-09T03:59:47;100012.28;;;17.83;nan
37694;BME280;23531;50.122;8.644;2022-09-09T04:01:49;100015.81;;;17.83;nan
37694;BME280;23531;50.122;8.644;2022-09-09T04:03:51;100019.34;;;17.89;nan
37694;BME280;23531;50.122;8.644;2022-09-09T04:05:53;100013.38;;;17.87;nan
37694;BME280;23531;50.122;8.644;2022-09-09T04:07:54;100011.44;;;17.77;nan
37694;BME280;23531;50.122;8.644;2022-09-09T04:09:56;99998.72;;;17.93;nan
37694;BME280;23531;50.122;8.644;2022-09-09T04:11:58;100006.06;;;18.02;nan
37694;BME280;23531;50.122;8.644;2022-09-09T04:14:00;100017.25;;;18.21;nan
37694;BME280;23531;50.122;8.644;2022-09-09T04:16:02;99993.59;;;18.17;nan
37694;BME280;23531;50.122;8.644;2022-09-09T04:18:04;100011.25;;;18.14;nan
37694;BME280;23531;50.122;8.644;2022-09-09T04:20:06;100006.59;;;17.99;nan
37694;BME280;23531;50.122;8.644;2022-09-09T04:22:11;100010.66;;;17.87;nan
37694;BME280;23531;50.122;8.644;2022-09-09T04:24:12;100007.38;;;17.80;nan
37694;BME280;23531;50.122;8.644;2022-09-09T04:26:16;100000.31;;;17.89;nan
37694;BME280;23531;50.122;8.644;2022-09-09T04:28:20;99999.53;;;17.93;nan
37694;BME280;23531;50.122;8.644;2022-09-09T04:30:22;100003.06;;;17.99;nan
37694;BME280;23531;50.122;8.644;2022-09-09T04:32:23;100002.81;;;18.05;nan
37694;BME280;23531;50.122;8.644;2022-09-09T04:34:26;100006.03;;;17.87;nan
37694;BME280;23531;50.122;8.644;2022-09-09T04:36:28;100001.44;;;17.93;nan
37694;BME280;23531;50.122;8.644;2022-09-09T04:38:30;100002.78;;;18.00;nan
37694;BME280;23531;50.122;8.644;2022-09-09T04:40:31;100000.91;;;18.11;nan
37694;BME280;23531;50.122;8.644;2022-09-09T04:42:34;99999.25;;;17.90;nan
37694;BME280;23531;50.122;8.644;2022-09-09T04:44:37;99992.19;;;17.94;nan
37694;BME280;23531;50.122;8.644;2022-09-09T04:46:39;99988.38;;;18.10;nan
37694;BME280;23531;50.122;8.644;2022-09-09T04:48:41;99985.66;;;18.10;nan
37694;BME280;23531;50.122;8.644;2022-09-09T04:50:42;99991.94;;;18.05;nan
37694;BME280;23531;50.122;8.644;2022-09-09T04:52:45;99994.09;;;18.03;nan
37694;BME280;23531;50.122;8.644;2022-09-09T04:54:46;100002.00;;;18.05;nan
37694;BME280;23531;50.122;8.644;2022-09-09T04:56:49;100003.06;;;17.99;nan
37694;BME280;23531;50.122;8.644;2022-09-09T04:58:51;100007.16;;;18.01;nan
37694;BME280;23531;50.122;8.644;2022-09-09T05:00:53;100011.50;;;18.07;nan
37694;BME280;23531;50.122;8.644;2022-09-09T05:02:55;100015.56;;;17.95;nan
37694;BME280;23531;50.122;8.644;2022-09-09T05:04:56;100014.47;;;17.91;nan
37694;BME280;23531;50.122;8.644;2022-09-09T05:06:58;100016.09;;;17.87;nan
37694;BME280;23531;50.122;8.644;2022-09-09T05:08:59;100016.94;;;17.97;nan
37694;BME280;23531;50.122;8.644;2022-09-09T05:11:01;100025.13;;;18.02;nan
37694;BME280;23531;50.122;8.644;2022-09-09T05:13:02;100026.75;;;18.03;nan
37694;BME280;23531;50.122;8.644;2022-09-09T05:15:05;100029.44;;;17.98;nan
37694;BME280;23531;50.122;8.644;2022-09-09T05:17:08;100016.09;;;17.92;nan
37694;BME280;23531;50.122;8.644;2022-09-09T05:19:09;100031.91;;;18.00;nan
37694;BME280;23531;50.122;8.644;2022-09-09T05:21:13;100032.44;;;18.07;nan
37694;BME280;23531;50.122;8.644;2022-09-09T05:23:14;100030.53;;;17.92;nan
37694;BME280;23531;50.122;8.644;2022-09-09T05:25:16;100037.88;;;17.92;nan
37694;BME280;23531;50.122;8.644;2022-09-09T05:27:17;100040.31;;;17.98;nan
37694;BME280;23531;50.122;8.644;2022-09-09T05:29:19;100041.94;;;17.89;nan
37694;BME280;23531;50.122;8.644;2022-09-09T05:31:21;100043.28;;;17.87;nan
37694;BME280;23531;50.122;8.644;2022-09-09T05:33:24;100038.09;;;17.80;nan
37694;BME280;23531;50.122;8.644;2022-09-09T05:35:27;100049.00;;;17.90;nan
37694;BME280;23531;50.122;8.644;2022-09-09T05:37:28;100049.31;;;17.94;nan
37694;BME280;23531;50.122;8.644;2022-09-09T05:39:31;100051.22;;;17.93;nan
37694;BME280;23531;50.122;8.644;2022-09-09T05:41:33;100056.34;;;17.95;nan
37694;BME280;23531;50.122;8.644;2022-09-09T05:43:35;100052.81;;;17.89;nan
37694;BME280;23531;50.122;8.644;2022-09-09T05:45:37;100055.88;;;18.13;nan
37694;BME280;23531;50.122;8.644;2022-09-09T05:47:38;100060.22;;;18.04;nan
37694;BME280;23531;50.122;8.644;2022-09-09T05:49:41;100069.16;;;17.99;nan
37694;BME280;23531;50.122;8.644;2022-09-09T05:51:42;100075.72;;;18.08;nan
37694;BME280;23531;50.122;8.644;2022-09-09T05:53:45;100075.72;;;18.08;nan
37694;BME280;23531;50.122;8.644;2022-09-09T05:55:46;100070.84;;;18.10;nan
37694;BME280;23531;50.122;8.644;2022-09-09T05:57:48;100073.81;;;18.04;nan
37694;BME280;23531;50.122;8.644;2022-09-09T05:59:52;100074.31;;;17.96;nan
37694;BME280;23531;50.122;8.644;2022-09-09T06:01:53;100072.13;;;17.88;nan
37694;BME280;23531;50.122;8.644;2022-09-09T06:03:55;100074.84;;;17.88;nan
37694;BME280;23531;50.122;8.644;2022-09-09T06:05:59;100077.00;;;17.81;nan
37694;BME280;23531;50.122;8.644;2022-09-09T06:08:00;100083.56;;;17.95;nan
37694;BME280;23531;50.122;8.644;2022-09-09T06:10:02;100078.69;;;18.07;nan
37694;BME280;23531;50.122;8.644;2022-09-09T06:12:04;100082.59;;;18.26;nan
37694;BME280;23531;50.122;8.644;2022-09-09T06:14:07;100086.97;;;18.37;nan
37694;BME280;23531;50.122;8.644;2022-09-09T06:16:09;100082.34;;;18.38;nan
37694;BME280;23531;50.122;8.644;2022-09-09T06:18:12;100081.75;;;18.31;nan
37694;BME280;23531;50.122;8.644;2022-09-09T06:20:13;100080.69;;;18.37;nan
37694;BME280;23531;50.122;8.644;2022-09-09T06:22:16;100079.03;;;18.21;nan
37694;BME280;23531;50.122;8.644;2022-09-09T06:24:17;100069.53;;;18.28;nan
37694;BME280;23531;50.122;8.644;2022-09-09T06:26:21;100076.59;;;18.29;nan
37694;BME280;23531;50.122;8.644;2022-09-09T06:28:24;100078.19;;;18.10;nan
37694;BME280;23531;50.122;8.644;2022-09-09T06:30:25;100083.63;;;18.05;nan
37694;BME280;23531;50.122;8.644;2022-09-09T06:32:27;100082.53;;;18.11;nan
37694;BME280;23531;50.122;8.644;2022-09-09T06:34:29;100078.19;;;18.05;nan
37694;BME280;23531;50.122;8.644;2022-09-09T06:36:31;100084.19;;;18.22;nan
37694;BME280;23531;50.122;8.644;2022-09-09T06:38:34;100080.94;;;18.15;nan
37694;BME280;23531;50.122;8.644;2022-09-09T06:40:36;100082.25;;;18.18;nan
37694;BME280;23531;50.122;8.644;2022-09-09T06:42:37;100079.88;;;18.26;nan
37694;BME280;23531;50.122;8.644;2022-09-09T06:44:39;100080.09;;;18.14;nan
37694;BME280;23531;50.122;8.644;2022-09-09T06:46:41;100083.13;;;18.28;nan
37694;BME280;23531;50.122;8.644;2022-09-09T06:48:44;100082.59;;;18.26;nan
37694;BME280;23531;50.122;8.644;2022-09-09T06:50:45;100079.84;;;18.31;nan
37694;BME280;23531;50.122;8.644;2022-09-09T06:52:47;100086.41;;;18.35;nan
37694;BME280;23531;50.122;8.644;2022-09-09T06:54:50;100083.94;;;18.29;nan
37694;BME280;23531;50.122;8.644;2022-09-09T06:56:51;100086.97;;;18.37;nan
37694;BME280;23531;50.122;8.644;2022-09-09T06:58:54;100090.28;;;18.60;nan
37694;BME280;23531;50.122;8.644;2022-09-09T07:01:02;100093.81;;;18.65;nan
37694;BME280;23531;50.122;8.644;2022-09-09T07:03:03;100096.00;;;18.58;nan
37694;BME280;23531;50.122;8.644;2022-09-09T07:05:06;100082.88;;;18.35;nan
37694;BME280;23531;50.122;8.644;2022-09-09T07:07:08;100077.72;;;18.38;nan
37694;BME280;23531;50.122;8.644;2022-09-09T07:09:13;100079.91;;;18.57;nan
37694;BME280;23531;50.122;8.644;2022-09-09T07:11:18;100080.75;;;18.67;nan
37694;BME280;23531;50.122;8.644;2022-09-09T07:13:23;100081.25;;;18.39;nan
37694;BME280;23531;50.122;8.644;2022-09-09T07:15:25;100083.41;;;18.42;nan
37694;BME280;23531;50.122;8.644;2022-09-09T07:17:26;100085.06;;;18.43;nan
37694;BME280;23531;50.122;8.644;2022-09-09T07:19:28;100093.78;;;18.55;nan
37694;BME280;23531;50.122;8.644;2022-09-09T07:21:30;100097.13;;;18.62;nan
37694;BME280;23531;50.122;8.644;2022-09-09T07:23:32;100090.00;;;18.66;nan
37694;BME280;23531;50.122;8.644;2022-09-09T07:25:35;100091.38;;;18.74;nan
37694;BME280;23531;50.122;8.644;2022-09-09T07:27:38;100093.03;;;18.70;nan
37694;BME280;23531;50.122;8.644;2022-09-09T07:29:40;100094.09;;;18.59;nan
37694;BME280;23531;50.122;8.644;2022-09-09T07:31:42;100093.56;;;18.62;nan
37694;BME280;23531;50.122;8.644;2022-09-09T07:33:44;100093.50;;;18.41;nan
37694;BME280;23531;50.122;8.644;2022-09-09T07:35:46;100096.47;;;18.40;nan
37694;BME280;23531;50.122;8.644;2022-09-09T07:37:47;100089.16;;;18.50;nan
37694;BME280;23531;50.122;8.644;2022-09-09T07:39:48;100097.91;;;18.68;nan
37694;BME280;23531;50.122;8.644;2022-09-09T07:41:51;100096.28;;;18.77;nan
37694;BME280;23531;50.122;8.644;2022-09-09T07:43:55;100094.38;;;18.77;nan
37694;BME280;23531;50.122;8.644;2022-09-09T07:45:58;100089.75;;;18.88;nan
37694;BME280;23531;50.122;8.644;2022-09-09T07:48:00;100093.03;;;18.95;nan
37694;BME280;23531;50.122;8.644;2022-09-09T07:50:01;100087.84;;;18.99;nan
37694;BME280;23531;50.122;8.644;2022-09-09T07:52:03;100100.41;;;18.95;nan
37694;BME280;23531;50.122;8.644;2022-09-09T07:54:06;100098.75;;;18.94;nan
37694;BME280;23531;50.122;8.644;2022-09-09T07:56:10;100111.00;;;18.86;nan
37694;BME280;23531;50.122;8.644;2022-09-09T07:58:11;100104.19;;;18.94;nan
37694;BME280;23531;50.122;8.644;2022-09-09T08:00:15;100115.91;;;19.04;nan
37694;BME280;23531;50.122;8.644;2022-09-09T08:02:16;100125.97;;;18.99;nan
37694;BME280;23531;50.122;8.644;2022-09-09T08:04:18;100118.63;;;19.09;nan
37694;BME280;23531;50.122;8.644;2022-09-09T08:06:20;100127.34;;;19.16;nan
37694;BME280;23531;50.122;8.644;2022-09-09T08:08:22;100124.63;;;19.16;nan
37694;BME280;23531;50.122;8.644;2022-09-09T08:10:23;100132.00;;;19.16;nan
37694;BME280;23531;50.122;8.644;2022-09-09T08:12:25;100121.91;;;19.01;nan
37694;BME280;23531;50.122;8.644;2022-09-09T08:14:27;100120.53;;;19.04;nan
37694;BME280;23531;50.122;8.644;2022-09-09T08:16:32;100122.44;;;19.13;nan
37694;BME280;23531;50.122;8.644;2022-09-09T08:18:37;100127.59;;;19.20;nan
37694;BME280;23531;50.122;8.644;2022-09-09T08:20:39;100127.06;;;19.33;nan
37694;BME280;23531;50.122;8.644;2022-09-09T08:22:40;100125.16;;;19.34;nan
37694;BME280;23531;50.122;8.644;2022-09-09T08:24:42;100131.16;;;19.36;nan
37694;BME280;23531;50.122;8.644;2022-09-09T08:26:45;100126.78;;;19.35;nan
37694;BME280;23531;50.122;8.644;2022-09-09T08:28:48;100135.25;;;19.23;nan
37694;BME280;23531;50.122;8.644;2022-09-09T08:30:50;100128.41;;;19.36;nan
37694;BME280;23531;50.122;8.644;2022-09-09T08:32:54;100128.44;;;19.41;nan
37694;BME280;23531;50.122;8.644;2022-09-09T08:34:57;100127.59;;;19.35;nan
37694;BME280;23531;50.122;8.644;2022-09-09T08:36:59;100130.56;;;19.44;nan
37694;BME280;23531;50.122;8.644;2022-09-09T08:39:01;100136.63;;;19.26;nan
37694;BME280;23531;50.122;8.644;2022-09-09T08:41:18;100136.31;;;19.37;nan
37694;BME280;23531;50.122;8.644;2022-09-09T08:43:24;100129.78;;;19.33;nan
37694;BME280;23531;50.122;8.644;2022-09-09T08:45:31;100131.66;;;19.43;nan
37694;BME280;23531;50.122;8.644;2022-09-09T08:47:44;100124.63;;;19.52;nan
37694;BME280;23531;50.122;8.644;2022-09-09T08:50:12;100127.88;;;19.49;nan
37694;BME280;23531;50.122;8.644;2022-09-09T08:52:18;100124.59;;;19.62;nan
37694;BME280;23531;50.122;8.644;2022-09-09T08:54:20;100121.84;;;19.57;nan
37694;BME280;23531;50.122;8.644;2022-09-09T08:56:24;100127.31;;;19.57;nan
37694;BME280;23531;50.122;8.644;2022-09-09T08:58:28;100115.63;;;19.51;nan
37694;BME280;23531;50.122;8.644;2022-09-09T09:00:39;100102.50;;;19.64;nan
37694;BME280;23531;50.122;8.644;2022-09-09T09:02:48;100112.28;;;19.70;nan
37694;BME280;23531;50.122;8.644;2022-09-09T09:05:01;100095.41;;;19.57;nan
37694;BME280;23531;50.122;8.644;2022-09-09T09:07:14;100097.56;;;19.71;nan
37694;BME280;23531;50.122;8.644;2022-09-09T09:09:23;100109.25;;;19.76;nan
37694;BME280;23531;50.122;8.644;2022-09-09T09:11:34;100098.94;;;19.63;nan
37694;BME280;23531;50.122;8.644;2022-09-09T09:13:41;100109.81;;;19.73;nan
37694;BME280;23531;50.122;8.644;2022-09-09T09:15:46;100107.09;;;19.73;nan
37694;BME280;23531;50.122;8.644;2022-09-09T09:17:50;100111.16;;;19.81;nan
37694;BME280;23531;50.122;8.644;2022-09-09T09:19:51;100106.84;;;19.54;nan
37694;BME280;23531;50.122;8.644;2022-09-09T09:21:59;100105.78;;;19.40;nan
37694;BME280;23531;50.122;8.644;2022-09-09T09:24:07;100115.88;;;19.50;nan
37694;BME280;23531;50.122;8.644;2022-09-09T09:26:15;100110.38;;;19.65;nan
37694;BME280;23531;50.122;8.644;2022-09-09T09:28:17;100114.66;;;19.86;nan
37694;BME280;23531;50.122;8.644;2022-09-09T09:30:23;100113.06;;;19.80;nan
37694;BME280;23531;50.122;8.644;2022-09-09T09:32:28;100108.72;;;19.74;nan
37694;BME280;23531;50.122;8.644;2022-09-09T09:34:32;100119.09;;;19.67;nan
37694;BME280;23531;50.122;8.644;2022-09-09T09:36:35;100122.69;;;19.63;nan
37694;BME280;23531;50.122;8.644;2022-09-09T09:38:39;100112.50;;;19.83;nan
37694;BME280;23531;50.122;8.644;2022-09-09T09:40:50;100113.50;;;20.08;nan
37694;BME280;23531;50.122;8.644;2022-09-09T09:42:53;100110.00;;;19.97;nan
37694;BME280;23531;50.122;8.644;2022-09-09T09:44:55;100112.97;;;20.01;nan
37694;BME280;23531;50.122;8.644;2022-09-09T09:47:06;100117.38;;;19.97;nan
37694;BME280;23531;50.122;8.644;2022-09-09T09:49:09;100106.47;;;19.86;nan
37694;BME280;23531;50.122;8.644;2022-09-09T09:51:13;100117.16;;;19.83;nan
37694;BME280;23531;50.122;8.644;2022-09-09T09:53:20;100108.97;;;19.83;nan
37694;BME280;23531;50.122;8.644;2022-09-09T09:55:22;100103.00;;;19.66;nan
37694;BME280;23531;50.122;8.644;2022-09-09T09:57:26;100101.69;;;19.63;nan
37694;BME280;23531;50.122;8.644;2022-09-09T09:59:34;100102.69;;;19.77;nan
37694;BME280;23531;50.122;8.644;2022-09-09T10:01:36;100105.44;;;19.82;nan
37694;BME280;23531;50.122;8.644;2022-09-09T10:03:37;100101.28;;;19.95;nan
37694;BME280;23531;50.122;8.644;2022-09-09T10:05:45;100092.81;;;19.91;nan
37694;BME280;23531;50.122;8.644;2022-09-09T10:08:00;100103.28;;;19.74;nan
37694;BME280;23531;50.122;8.644;2022-09-09T10:10:03;100100.25;;;19.81;nan
37694;BME280;23531;50.122;8.644;2022-09-09T10:12:11;100099.91;;;19.98;nan
37694;BME280;23531;50.122;8.644;2022-09-09T10:14:21;100095.41;;;20.22;nan
37694;BME280;23531;50.122;8.644;2022-09-09T10:16:35;100082.00;;;20.30;nan
37694;BME280;23531;50.122;8.644;2022-09-09T10:18:49;100078.53;;;20.15;nan
37694;BME280;23531;50.122;8.644;2022-09-09T10:21:02;100080.59;;;20.33;nan
37694;BME280;23531;50.122;8.644;2022-09-09T10:23:17;100081.34;;;20.54;nan
37694;BME280;23531;50.122;8.644;2022-09-09T10:25:38;100079.03;;;20.66;nan
37694;BME280;23531;50.122;8.644;2022-09-09T10:27:56;100077.16;;;20.61;nan
37694;BME280;23531;50.122;8.644;2022-09-09T10:30:10;100082.38;;;20.58;nan
37694;BME280;23531;50.122;8.644;2022-09-09T10:32:33;100079.78;;;20.33;nan
37694;BME280;23531;50.122;8.644;2022-09-09T10:34:55;100081.03;;;20.55;nan
37694;BME280;23531;50.122;8.644;2022-09-09T10:36:57;100084.81;;;20.64;nan
37694;BME280;23531;50.122;8.644;2022-09-09T10:39:01;100077.56;;;20.79;nan
37694;BME280;23531;50.122;8.644;2022-09-09T10:41:16;100086.28;;;20.86;nan
37694;BME280;23531;50.122;8.644;2022-09-09T10:43:27;100089.09;;;20.76;nan
37694;BME280;23531;50.122;8.644;2022-09-09T10:45:37;100095.06;;;20.78;nan
37694;BME280;23531;50.122;8.644;2022-09-09T10:48:10;100088.56;;;20.74;nan
37694;BME280;23531;50.122;8.644;2022-09-09T10:50:38;100084.72;;;20.36;nan
37694;BME280;23531;50.122;8.644;2022-09-09T10:52:48;100086.09;;;20.28;nan
37694;BME280;23531;50.122;8.644;2022-09-09T10:54:58;100086.91;;;20.28;nan
37694;BME280;23531;50.122;8.644;2022-09-09T10:57:04;100086.88;;;20.34;nan
37694;BME280;23531;50.122;8.644;2022-09-09T10:59:13;100077.16;;;20.17;nan
37694;BME280;23531;50.122;8.644;2022-09-09T11:01:20;100075.03;;;20.04;nan
37694;BME280;23531;50.122;8.644;2022-09-09T11:03:25;100082.63;;;20.12;nan
37694;BME280;23531;50.122;8.644;2022-09-09T11:05:31;100081.72;;;20.27;nan
37694;BME280;23531;50.122;8.644;2022-09-09T11:07:39;100077.59;;;20.35;nan
37694;BME280;23531;50.122;8.644;2022-09-09T11:09:48;100068.03;;;20.37;nan
37694;BME280;23531;50.122;8.644;2022-09-09T11:11:53;100070.22;;;20.40;nan
37694;BME280;23531;50.122;8.644;2022-09-09T11:13:58;100064.41;;;20.52;nan
37694;BME280;23531;50.122;8.644;2022-09-09T11:16:10;100064.03;;;20.19;nan
37694;BME280;23531;50.122;8.644;2022-09-09T11:18:20;100065.97;;;20.19;nan
37694;BME280;23531;50.122;8.644;2022-09-09T11:20:22;100061.31;;;20.19;nan
37694;BME280;23531;50.122;8.644;2022-09-09T11:22:29;100065.91;;;20.24;nan
37694;BME280;23531;50.122;8.644;2022-09-09T11:24:36;100070.78;;;20.37;nan
37694;BME280;23531;50.122;8.644;2022-09-09T11:26:45;100066.88;;;20.48;nan
37694;BME280;23531;50.122;8.644;2022-09-09T11:28:59;100068.78;;;20.48;nan
37694;BME280;23531;50.122;8.644;2022-09-09T11:31:16;100065.03;;;20.39;nan
37694;BME280;23531;50.122;8.644;2022-09-09T11:33:46;100070.16;;;20.45;nan
37694;BME280;23531;50.122;8.644;2022-09-09T11:38:44;100076.97;;;20.48;nan
37694;BME280;23531;50.122;8.644;2022-09-09T11:40:54;100069.81;;;20.57;nan
37694;BME280;23531;50.122;8.644;2022-09-09T11:43:02;100066.78;;;20.63;nan
37694;BME280;23531;50.122;8.644;2022-09-09T11:45:09;100067.59;;;20.64;nan
37694;BME280;23531;50.122;8.644;2022-09-09T11:47:19;100066.69;;;20.74;nan
37694;BME280;23531;50.122;8.644;2022-09-09T11:49:27;100083.84;;;20.79;nan
37694;BME280;23531;50.122;8.644;2022-09-09T11:51:33;100073.19;;;20.78;nan
37694;BME280;23531;50.122;8.644;2022-09-09T11:53:47;100065.53;;;20.80;nan
37694;BME280;23531;50.122;8.644;2022-09-09T11:56:03;100064.16;;;20.82;nan
37694;BME280;23531;50.122;8.644;2022-09-09T11:58:15;100062.31;;;20.73;nan
37694;BME280;23531;50.122;8.644;2022-09-09T12:00:34;100060.97;;;20.70;nan
37694;BME280;23531;50.122;8.644;2022-09-09T12:02:48;100074.06;;;20.73;nan
37694;BME280;23531;50.122;8.644;2022-09-09T12:04:55;100081.72;;;20.76;nan
37694;BME280;23531;50.122;8.644;2022-09-09T12:07:01;100087.47;;;20.75;nan
37694;BME280;23531;50.122;8.644;2022-09-09T12:09:07;100083.84;;;20.79;nan
37694;BME280;23531;50.122;8.644;2022-09-09T12:11:11;100076.19;;;20.81;nan
37694;BME280;23531;50.122;8.644;2022-09-09T12:13:16;100071.78;;;20.85;nan
37694;BME280;23531;50.122;8.644;2022-09-09T12:15:27;100070.97;;;20.85;nan
37694;BME280;23531;50.122;8.644;2022-09-09T12:17:30;100073.63;;;20.95;nan
37694;BME280;23531;50.122;8.644;2022-09-09T12:19:33;100065.41;;;20.95;nan
37694;BME280;23531;50.122;8.644;2022-09-09T12:21:40;100069.72;;;21.01;nan
37694;BME280;23531;50.122;8.644;2022-09-09T12:23:47;100068.88;;;21.06;nan
37694;BME280;23531;50.122;8.644;2022-09-09T12:26:18;100062.56;;;21.10;nan
37694;BME280;23531;50.122;8.644;2022-09-09T12:28:27;100062.75;;;21.14;nan
37694;BME280;23531;50.122;8.644;2022-09-09T12:30:39;100057.66;;;21.07;nan
37694;BME280;23531;50.122;8.644;2022-09-09T12:32:43;100052.72;;;21.09;nan
37694;BME280;23531;50.122;8.644;2022-09-09T12:34:47;100059.28;;;21.08;nan
37694;BME280;23531;50.122;8.644;2022-09-09T12:36:57;100050.47;;;21.11;nan
37694;BME280;23531;50.122;8.644;2022-09-09T12:39:10;100053.00;;;21.08;nan
37694;BME280;23531;50.122;8.644;2022-09-09T12:41:21;100051.91;;;21.09;nan
37694;BME280;23531;50.122;8.644;2022-09-09T12:43:25;100058.22;;;21.04;nan
37694;BME280;23531;50.122;8.644;2022-09-09T12:45:30;100061.22;;;21.02;nan
37694;BME280;23531;50.122;8.644;2022-09-09T12:47:38;100067.63;;;20.93;nan
37694;BME280;23531;50.122;8.644;2022-09-09T12:49:41;100103.78;;;20.80;nan
37694;BME280;23531;50.122;8.644;2022-09-09T12:51:43;100101.34;;;20.39;nan
37694;BME280;23531;50.122;8.644;2022-09-09T12:53:46;100091.50;;;19.84;nan
37694;BME280;23531;50.122;8.644;2022-09-09T12:55:51;100081.72;;;19.73;nan
37694;BME280;23531;50.122;8.644;2022-09-09T12:57:53;100068.28;;;19.91;nan
37694;BME280;23531;50.122;8.644;2022-09-09T13:00:07;100080.28;;;19.96;nan
37694;BME280;23531;50.122;8.644;2022-09-09T13:02:17;100081.31;;;20.00;nan
37694;BME280;23531;50.122;8.644;2022-09-09T13:04:20;100084.84;;;20.05;nan
37694;BME280;23531;50.122;8.644;2022-09-09T13:06:24;100083.88;;;19.81;nan
37694;BME280;23531;50.122;8.644;2022-09-09T13:08:26;100076.50;;;19.76;nan
37694;BME280;23531;50.122;8.644;2022-09-09T13:10:31;100075.97;;;19.79;nan
37694;BME280;23531;50.122;8.644;2022-09-09T13:12:34;100069.72;;;19.69;nan
37694;BME280;23531;50.122;8.644;2022-09-09T13:14:36;100070.50;;;19.79;nan
37694;BME280;23531;50.122;8.644;2022-09-09T13:16:38;100075.34;;;19.98;nan